createdAt,value
2019-05-22T00:01:18.166Z,100445.50
2019-05-22T00:03:56.567Z,100442.83
2019-05-22T00:06:30.077Z,100435.74
2019-05-22T00:08:59.172Z,100434.97
2019-05-22T00:11:29.997Z,100440.41
2019-05-22T00:14:00.632Z,100446.31
2019-05-22T00:16:31.612Z,100444.14
2019-05-22T00:19:01.387Z,100449.48
2019-05-22T00:21:30.464Z,100448.14
2019-05-22T00:24:00.184Z,100444.17
2019-05-22T00:26:29.263Z,100454.95
2019-05-22T00:28:59.433Z,100449.63
2019-05-22T00:31:30.202Z,100449.20
2019-05-22T00:34:00.210Z,100460.84
2019-05-22T00:36:31.350Z,100460.47
2019-05-22T00:39:00.745Z,100461.02
2019-05-22T00:41:32.711Z,100461.95
2019-05-22T00:44:01.915Z,100470.98
2019-05-22T00:46:31.145Z,100466.59
2019-05-22T00:49:01.861Z,100467.06
2019-05-22T00:51:45.644Z,100466.22
2019-05-22T00:54:21.886Z,100476.93
2019-05-22T00:56:56.825Z,100476.47
2019-05-22T00:59:31.796Z,100475.16
2019-05-22T01:02:03.009Z,100480.96
2019-05-22T01:04:38.945Z,100476.48
2019-05-22T01:07:18.905Z,100482.30
2019-05-22T01:09:51.963Z,100481.43
2019-05-22T01:12:30.637Z,100481.02
2019-05-22T01:15:06.399Z,100488.16
2019-05-22T01:17:36.772Z,100491.78
2019-05-22T01:20:09.957Z,100499.82
2019-05-22T01:22:41.803Z,100493.17
2019-05-22T01:25:14.439Z,100490.03
2019-05-22T01:27:44.038Z,100491.37
2019-05-22T01:30:19.517Z,100490.09
2019-05-22T01:32:51.819Z,100491.94
2019-05-22T01:35:29.275Z,100492.92
2019-05-22T01:37:59.887Z,100496.55
2019-05-22T01:40:41.545Z,100494.91
2019-05-22T01:43:14.158Z,100494.14
2019-05-22T01:45:52.501Z,100497.39
2019-05-22T01:48:29.754Z,100503.70
2019-05-22T01:50:58.855Z,100497.13
2019-05-22T01:53:38.580Z,100502.09
2019-05-22T01:56:11.395Z,100497.62
2019-05-22T01:58:42.419Z,100507.91
2019-05-22T02:01:18.678Z,100505.23
2019-05-22T02:03:47.973Z,100501.69
2019-05-22T02:06:19.522Z,100501.69
2019-05-22T02:08:53.241Z,100501.30
2019-05-22T02:11:25.546Z,100504.45
2019-05-22T02:14:03.812Z,100520.45
2019-05-22T02:16:34.389Z,100508.03
2019-05-22T02:19:05.146Z,100513.44
2019-05-22T02:21:35.789Z,100510.34
2019-05-22T02:24:07.371Z,100503.72
2019-05-22T02:26:37.059Z,100508.20
2019-05-22T02:29:08.708Z,100516.20
2019-05-22T02:31:39.447Z,100518.88
2019-05-22T02:34:09.397Z,100521.13
2019-05-22T02:36:40.702Z,100527.86
2019-05-22T02:39:15.719Z,100531.89
2019-05-22T02:41:48.449Z,100527.48
2019-05-22T02:44:17.787Z,100523.94
2019-05-22T02:46:47.229Z,100529.23
2019-05-22T02:49:17.427Z,100534.12
2019-05-22T02:51:47.881Z,100530.18
2019-05-22T02:54:17.003Z,100530.64
2019-05-22T02:56:46.189Z,100524.04
2019-05-22T02:59:17.526Z,100533.88
2019-05-22T03:01:47.013Z,100541.48
2019-05-22T03:04:17.328Z,100539.72
2019-05-22T03:06:46.413Z,100532.25
2019-05-22T03:09:19.698Z,100538.93
2019-05-22T03:11:59.191Z,100545.18
2019-05-22T03:14:31.197Z,100548.73
2019-05-22T03:17:03.032Z,100552.34
2019-05-22T03:19:41.225Z,100549.25
2019-05-22T03:22:24.359Z,100560.41
2019-05-22T03:24:55.497Z,100552.89
2019-05-22T03:27:38.827Z,100558.72
2019-05-22T03:30:12.794Z,100556.09
2019-05-22T03:32:44.550Z,100570.81
2019-05-22T03:35:14.266Z,100563.76
2019-05-22T03:37:43.746Z,100569.59
2019-05-22T03:40:14.103Z,100568.31
2019-05-22T03:42:43.911Z,100576.33
2019-05-22T03:45:14.552Z,100563.98
2019-05-22T03:47:43.974Z,100568.01
2019-05-22T03:50:13.905Z,100571.59
2019-05-22T03:52:43.562Z,100572.02
2019-05-22T03:55:14.211Z,100582.26
2019-05-22T03:57:44.586Z,100578.28
2019-05-22T04:00:17.512Z,100583.59
2019-05-22T04:02:49.740Z,100588.42
2019-05-22T04:05:20.983Z,100602.15
2019-05-22T04:07:52.679Z,100599.97
2019-05-22T04:10:23.977Z,100609.73
2019-05-22T04:12:53.731Z,100613.28
2019-05-22T04:19:17.381Z,100612.88
2019-05-22T04:21:47.330Z,100601.31
2019-05-22T04:24:16.833Z,100606.63
2019-05-22T04:26:46.935Z,100611.53
2019-05-22T04:29:16.019Z,100609.28
2019-05-22T04:31:56.789Z,100616.44
2019-05-22T04:34:26.491Z,100606.71
2019-05-22T04:36:55.680Z,100620.02
2019-05-22T04:39:27.477Z,100618.72
2019-05-22T04:41:58.970Z,100618.77
2019-05-22T04:44:29.301Z,100623.22
2019-05-22T04:46:58.390Z,100619.24
2019-05-22T04:49:27.510Z,100625.03
2019-05-22T04:51:56.600Z,100631.61
2019-05-22T04:54:26.152Z,100629.38
2019-05-22T04:56:55.422Z,100632.94
2019-05-22T04:59:24.520Z,100633.82
2019-05-22T05:01:53.970Z,100631.19
2019-05-22T05:04:24.249Z,100638.73
2019-05-22T05:06:53.783Z,100638.73
2019-05-22T05:09:22.987Z,100643.66
2019-05-22T05:11:52.357Z,100644.55
2019-05-22T05:14:21.481Z,100652.52
2019-05-22T05:16:50.623Z,100649.88
2019-05-22T05:19:20.470Z,100653.46
2019-05-22T05:21:49.540Z,100648.15
2019-05-22T05:24:18.866Z,100651.70
2019-05-22T05:26:48.084Z,100652.62
2019-05-22T05:29:28.592Z,100661.94
2019-05-22T05:31:59.009Z,100661.48
2019-05-22T05:34:38.320Z,100661.47
2019-05-22T05:37:09.757Z,100665.48
2019-05-22T05:40:26.330Z,100668.14
2019-05-22T05:42:55.601Z,100662.38
2019-05-22T05:45:26.689Z,100674.40
2019-05-22T05:47:57.863Z,100680.59
2019-05-22T05:50:38.943Z,100686.80
2019-05-22T05:52:59.920Z,100682.39
2019-05-22T05:55:31.057Z,100673.56
2019-05-22T05:58:28.632Z,100685.55
2019-05-22T06:01:02.923Z,100687.73
2019-05-22T06:03:39.269Z,100693.53
2019-05-22T06:06:55.116Z,100682.88
2019-05-22T06:09:27.377Z,100690.81
2019-05-22T06:11:57.916Z,100690.39
2019-05-22T06:14:29.206Z,100685.09
2019-05-22T06:17:54.727Z,100693.47
2019-05-22T06:20:24.119Z,100695.71
2019-05-22T06:23:40.809Z,100701.05
2019-05-22T06:26:12.227Z,100700.58
2019-05-22T06:28:41.995Z,100693.92
2019-05-22T06:31:16.537Z,100699.23
2019-05-22T06:33:45.806Z,100698.75
2019-05-22T06:36:20.194Z,100701.40
2019-05-22T06:39:08.639Z,100708.92
2019-05-22T06:41:39.273Z,100712.03
2019-05-22T06:44:40.760Z,100718.69
2019-05-22T06:47:17.608Z,100719.58
2019-05-22T06:49:52.847Z,100721.36
2019-05-22T06:52:22.651Z,100715.59
2019-05-22T06:54:52.332Z,100721.78
2019-05-22T06:57:34.959Z,100724.42
2019-05-22T07:00:13.843Z,100722.63
2019-05-22T07:02:39.620Z,100725.28
2019-05-22T07:05:09.872Z,100729.70
2019-05-22T07:07:39.449Z,100723.50
2019-05-22T07:10:12.932Z,100725.25
2019-05-22T07:12:43.798Z,100735.87
2019-05-22T07:15:23.144Z,100731.44
2019-05-22T07:17:58.860Z,100738.95
2019-05-22T07:20:32.466Z,100736.73
2019-05-22T07:23:04.081Z,100742.05
2019-05-22T07:25:35.448Z,100744.70
2019-05-22T07:28:04.788Z,100743.83
2019-05-22T07:30:34.025Z,100753.57
2019-05-22T07:33:03.231Z,100743.84
2019-05-22T07:35:46.186Z,100748.25
2019-05-22T07:38:03.752Z,100750.02
2019-05-22T07:40:33.815Z,100760.67
2019-05-22T07:43:03.022Z,100758.89
2019-05-22T07:45:34.245Z,100760.66
2019-05-22T07:48:04.762Z,100763.73
2019-05-22T07:50:36.400Z,100763.30
2019-05-22T07:53:07.375Z,100765.97
2019-05-22T07:55:37.052Z,100759.73
2019-05-22T07:58:11.981Z,100766.86
2019-05-22T08:00:47.838Z,100759.31
2019-05-22T08:03:17.012Z,100770.83
2019-05-22T08:05:50.110Z,100768.16
2019-05-22T08:08:21.120Z,100771.23
2019-05-22T08:10:50.569Z,100782.34
2019-05-22T08:13:19.974Z,100790.78
2019-05-22T08:15:59.619Z,100783.20
2019-05-22T08:18:41.712Z,100789.41
2019-05-22T08:24:20.956Z,100780.08
2019-05-22T08:26:54.464Z,100788.48
2019-05-22T08:29:22.121Z,100793.80
2019-05-22T08:31:53.465Z,100788.01
2019-05-22T08:34:24.126Z,100798.20
2019-05-22T08:36:54.117Z,100805.31
2019-05-22T08:39:28.112Z,100806.19
2019-05-22T08:41:58.059Z,100805.30
2019-05-22T08:44:28.678Z,100811.03
2019-05-22T08:46:59.658Z,100816.36
2019-05-22T08:49:29.938Z,100815.02
2019-05-22T08:51:59.752Z,100823.87
2019-05-22T08:54:30.433Z,100824.72
2019-05-22T08:57:00.375Z,100832.70
2019-05-22T08:59:37.366Z,100831.35
2019-05-22T09:02:12.595Z,100834.00
2019-05-22T09:04:49.535Z,100830.01
2019-05-22T09:07:19.168Z,100843.33
2019-05-22T09:09:48.340Z,100846.84
2019-05-22T09:12:17.425Z,100842.38
2019-05-22T09:14:46.509Z,100843.68
2019-05-22T09:17:15.865Z,100839.65
2019-05-22T09:19:45.934Z,100850.23
2019-05-22T09:22:15.575Z,100854.66
2019-05-22T09:24:45.608Z,100849.72
2019-05-22T09:27:18.514Z,100850.19
2019-05-22T09:29:47.656Z,100856.39
2019-05-22T09:32:17.106Z,100851.06
2019-05-22T09:34:46.288Z,100854.16
2019-05-22T09:37:15.386Z,100853.70
2019-05-22T09:39:44.835Z,100856.75
2019-05-22T09:42:14.834Z,100858.05
2019-05-22T09:44:45.135Z,100861.13
2019-05-22T09:47:15.133Z,100849.07
2019-05-22T09:49:45.865Z,100857.97
2019-05-22T09:52:14.940Z,100864.16
2019-05-22T09:54:44.009Z,100860.13
2019-05-22T09:57:16.449Z,100867.66
2019-05-22T09:59:45.522Z,100865.86
2019-05-22T10:02:14.775Z,100865.83
2019-05-22T10:04:44.025Z,100865.80
2019-05-22T10:07:13.120Z,100873.81
2019-05-22T10:09:45.017Z,100872.52
2019-05-22T10:12:14.197Z,100878.84
2019-05-22T10:14:43.351Z,100873.08
2019-05-22T10:17:22.111Z,100876.22
2019-05-22T10:19:51.330Z,100882.00
2019-05-22T10:22:21.196Z,100885.08
2019-05-22T10:25:14.035Z,100889.14
2019-05-22T10:27:27.639Z,100886.47
2019-05-22T10:29:57.087Z,100889.14
2019-05-22T10:32:32.222Z,100897.56
2019-05-22T10:34:59.794Z,100896.30
2019-05-22T10:37:29.468Z,100908.73
2019-05-22T10:39:59.208Z,100893.28
2019-05-22T10:42:28.365Z,100907.03
2019-05-22T10:44:57.524Z,100899.50
2019-05-22T10:47:27.331Z,100899.89
2019-05-22T10:49:56.436Z,100899.86
2019-05-22T10:52:27.413Z,100898.95
2019-05-22T10:54:56.587Z,100902.47
2019-05-22T10:57:26.397Z,100904.66
2019-05-22T10:59:55.462Z,100907.74
2019-05-22T11:02:25.317Z,100913.08
2019-05-22T11:04:54.737Z,100910.47
2019-05-22T11:07:25.681Z,100913.62
2019-05-22T11:09:55.287Z,100912.73
2019-05-22T11:12:27.425Z,100916.33
2019-05-22T11:14:57.393Z,100922.16
2019-05-22T11:17:26.975Z,100922.17
2019-05-22T11:19:56.205Z,100926.62
2019-05-22T11:22:26.262Z,100921.77
2019-05-22T11:24:55.363Z,100923.09
2019-05-22T11:27:25.155Z,100921.31
2019-05-22T11:29:54.551Z,100904.86
2019-05-22T11:32:29.870Z,100927.98
2019-05-22T11:34:59.938Z,100931.52
2019-05-22T11:37:30.923Z,100931.52
2019-05-22T11:40:01.557Z,100934.62
2019-05-22T11:42:46.031Z,100945.27
2019-05-22T11:45:14.705Z,100942.55
2019-05-22T11:47:49.391Z,100939.86
2019-05-22T11:50:22.737Z,100950.95
2019-05-22T11:52:52.002Z,100950.00
2019-05-22T11:55:21.778Z,100958.02
2019-05-22T11:57:51.821Z,100961.99
2019-05-22T12:00:25.794Z,100966.41
2019-05-22T12:02:56.414Z,100962.86
2019-05-22T12:05:26.458Z,100955.80
2019-05-22T12:07:55.623Z,100962.46
2019-05-22T12:10:26.580Z,100960.68
2019-05-22T12:12:56.122Z,100956.67
2019-05-22T12:15:29.730Z,100964.20
2019-05-22T12:17:59.643Z,100957.52
2019-05-22T12:20:30.211Z,100954.80
2019-05-22T12:22:59.773Z,100952.91
2019-05-22T12:25:30.776Z,100941.78
2019-05-22T12:28:00.050Z,100955.95
2019-05-22T12:30:29.640Z,100945.70
2019-05-22T12:33:00.037Z,100954.55
2019-05-22T12:35:29.214Z,100957.58
2019-05-22T12:37:59.263Z,100966.51
2019-05-22T12:40:33.667Z,100963.39
2019-05-22T12:43:04.120Z,100962.94
2019-05-22T12:45:34.313Z,100961.17
2019-05-22T12:48:06.990Z,100964.70
2019-05-22T12:50:36.711Z,100968.23
2019-05-22T12:53:08.029Z,100970.38
2019-05-22T12:55:37.166Z,100957.86
2019-05-22T12:58:07.060Z,100972.08
2019-05-22T13:00:39.530Z,100970.37
2019-05-22T13:03:09.079Z,100971.69
2019-05-22T13:05:51.938Z,100978.75
2019-05-22T13:08:21.821Z,100976.52
2019-05-22T13:10:52.408Z,100981.77
2019-05-22T13:13:22.049Z,100972.38
2019-05-22T13:15:54.243Z,100976.36
2019-05-22T13:18:25.680Z,100977.69
2019-05-22T13:20:55.576Z,100967.89
2019-05-22T13:23:28.894Z,100974.05
2019-05-22T13:25:58.770Z,100980.70
2019-05-22T13:28:30.422Z,100981.09
2019-05-22T13:31:01.131Z,100978.00
2019-05-22T13:33:31.575Z,100986.37
2019-05-22T13:36:01.761Z,100997.88
2019-05-22T13:38:30.835Z,100987.64
2019-05-22T13:41:00.094Z,100996.52
2019-05-22T13:43:29.892Z,100984.98
2019-05-22T13:45:59.477Z,100997.01
2019-05-22T13:48:28.788Z,100985.87
2019-05-22T13:51:00.043Z,100993.88
2019-05-22T13:53:30.083Z,101000.10
2019-05-22T13:55:59.270Z,100996.58
2019-05-22T13:58:29.716Z,101001.05
2019-05-22T14:00:59.009Z,101008.59
2019-05-22T14:03:28.538Z,101007.69
2019-05-22T14:05:58.237Z,101002.34
2019-05-22T14:08:28.168Z,101010.27
2019-05-22T14:10:58.275Z,101005.31
2019-05-22T14:13:27.812Z,101006.13
2019-05-22T14:15:57.869Z,101009.16
2019-05-22T14:18:27.498Z,101006.84
2019-05-22T14:20:56.569Z,101007.13
2019-05-22T14:23:25.635Z,101008.76
2019-05-22T14:25:54.743Z,101009.14
2019-05-22T14:28:25.422Z,101006.05
2019-05-22T14:30:54.940Z,101005.95
2019-05-22T14:33:28.060Z,101015.25
2019-05-22T14:35:57.852Z,101015.14
2019-05-22T14:38:27.470Z,101011.95
2019-05-22T14:40:57.471Z,101007.84
2019-05-22T14:43:26.919Z,101009.97
2019-05-22T14:45:55.997Z,101010.20
2019-05-22T14:48:25.097Z,101017.16
2019-05-22T14:50:54.305Z,101015.68
2019-05-22T14:53:23.355Z,101015.94
2019-05-22T14:55:52.958Z,101014.48
2019-05-22T14:58:23.435Z,101024.16
2019-05-22T15:00:53.185Z,101013.42
2019-05-22T15:03:22.985Z,101017.80
2019-05-22T15:05:53.237Z,101016.73
2019-05-22T15:08:22.324Z,101026.47
2019-05-22T15:10:51.597Z,101021.98
2019-05-22T15:13:21.515Z,101022.41
2019-05-22T15:15:50.597Z,101017.45
2019-05-22T15:18:19.704Z,101024.09
2019-05-22T15:21:15.171Z,101021.78
2019-05-22T15:23:44.941Z,101018.58
2019-05-22T15:26:14.715Z,101008.16
2019-05-22T15:28:43.979Z,101013.78
2019-05-22T15:31:13.540Z,101010.05
2019-05-22T15:33:43.132Z,101006.67
2019-05-22T15:36:15.896Z,101009.94
2019-05-22T15:38:46.195Z,101006.14
2019-05-22T15:41:15.451Z,101003.80
2019-05-22T15:43:52.534Z,101010.37
2019-05-22T15:46:19.964Z,101003.54
2019-05-22T15:48:50.706Z,101005.98
2019-05-22T15:51:24.389Z,101011.69
2019-05-22T15:53:58.006Z,101018.66
2019-05-22T15:56:30.462Z,101014.10
2019-05-22T15:59:01.009Z,101020.64
2019-05-22T16:01:33.405Z,101018.83
2019-05-22T16:04:02.693Z,101019.23
2019-05-22T16:06:32.442Z,101011.78
2019-05-22T16:09:04.135Z,101016.28
2019-05-22T16:11:34.182Z,101026.04
2019-05-22T16:14:03.781Z,101021.98
2019-05-22T16:16:36.089Z,101018.39
2019-05-22T16:19:09.009Z,101012.12
2019-05-22T16:21:42.048Z,101019.56
2019-05-22T16:24:11.953Z,101020.91
2019-05-22T16:26:42.323Z,101021.41
2019-05-22T16:29:12.723Z,101025.09
2019-05-22T16:31:44.002Z,101022.55
2019-05-22T16:34:14.679Z,101023.59
2019-05-22T16:36:44.847Z,101022.89
2019-05-22T16:39:17.140Z,101028.78
2019-05-22T16:41:47.547Z,101025.23
2019-05-22T16:44:16.880Z,101028.45
2019-05-22T16:46:46.912Z,101038.46
2019-05-22T16:49:17.009Z,101032.41
2019-05-22T16:51:47.294Z,101033.48
2019-05-22T16:54:20.301Z,101032.63
2019-05-22T16:56:48.243Z,101033.50
2019-05-22T16:59:18.781Z,101037.59
2019-05-22T17:01:58.746Z,101050.59
2019-05-22T17:04:19.505Z,101044.47
2019-05-22T17:06:48.566Z,101044.06
2019-05-22T17:09:18.931Z,101047.70
2019-05-22T17:11:48.405Z,101048.75
2019-05-22T17:14:18.995Z,101057.78
2019-05-22T17:16:49.663Z,101056.94
2019-05-22T17:19:27.210Z,101053.94
2019-05-22T17:21:50.253Z,101051.75
2019-05-22T17:24:21.371Z,101048.34
2019-05-22T17:26:52.496Z,101054.24
2019-05-22T17:29:21.600Z,101048.56
2019-05-22T17:31:51.627Z,101044.16
2019-05-22T17:34:36.561Z,101056.70
2019-05-22T17:37:14.465Z,101060.38
2019-05-22T17:39:46.730Z,101062.25
2019-05-22T17:42:18.375Z,101055.20
2019-05-22T17:44:49.685Z,101051.31
2019-05-22T17:47:21.826Z,101061.22
2019-05-22T17:49:51.703Z,101059.05
2019-05-22T17:52:23.241Z,101056.89
2019-05-22T17:54:54.149Z,101052.46
2019-05-22T17:57:25.315Z,101051.66
2019-05-22T17:59:55.825Z,101058.44
2019-05-22T18:02:29.510Z,101055.88
2019-05-22T18:04:58.599Z,101061.77
2019-05-22T18:07:28.765Z,101064.05
2019-05-22T18:09:57.836Z,101064.09
2019-05-22T18:12:27.635Z,101061.92
2019-05-22T18:14:57.002Z,101058.00
2019-05-22T18:17:26.651Z,101065.21
2019-05-22T18:19:55.943Z,101062.62
2019-05-22T18:22:25.008Z,101066.26
2019-05-22T18:24:54.060Z,101060.98
2019-05-22T18:27:25.226Z,101062.81
2019-05-22T18:29:54.199Z,101066.86
2019-05-22T18:32:23.381Z,101065.13
2019-05-22T18:34:52.457Z,101068.72
2019-05-22T18:37:21.538Z,101062.14
2019-05-22T18:39:51.095Z,101062.60
2019-05-22T18:42:20.355Z,101071.56
2019-05-22T18:44:49.349Z,101074.73
2019-05-22T18:47:18.659Z,101073.06
2019-05-22T18:49:47.729Z,101078.90
2019-05-22T18:52:16.917Z,101073.12
2019-05-22T18:54:45.979Z,101082.97
2019-05-22T18:57:15.838Z,101080.81
2019-05-22T18:59:45.432Z,101087.11
2019-05-22T19:02:14.853Z,101091.19
2019-05-22T19:04:44.003Z,101093.03
2019-05-22T19:07:13.374Z,101098.41
2019-05-22T19:09:42.477Z,101097.18
2019-05-22T19:12:11.662Z,101104.81
2019-05-22T19:14:40.811Z,101100.84
2019-05-22T19:17:10.156Z,101107.14
2019-05-22T19:19:39.125Z,101105.40
2019-05-22T19:22:08.508Z,101116.57
2019-05-22T19:24:37.628Z,101115.30
2019-05-22T19:27:06.709Z,101116.22
2019-05-22T19:29:35.778Z,101120.72
2019-05-22T19:32:04.963Z,101118.13
2019-05-22T19:34:34.026Z,101125.70
2019-05-22T19:37:03.115Z,101129.77
2019-05-22T19:39:32.182Z,101134.27
2019-05-22T19:42:05.015Z,101137.84
2019-05-22T19:44:32.243Z,101139.20
2019-05-22T19:47:01.531Z,101149.02
2019-05-22T19:49:31.191Z,101136.58
2019-05-22T19:52:00.373Z,101140.63
2019-05-22T19:54:29.638Z,101148.65
2019-05-22T19:56:58.744Z,101153.12
2019-05-22T19:59:27.868Z,101146.02
2019-05-22T20:01:57.439Z,101148.73
2019-05-22T20:04:26.999Z,101148.74
2019-05-22T20:06:56.859Z,101148.76
2019-05-22T20:09:27.148Z,101157.68
2019-05-22T20:11:56.235Z,101158.16
2019-05-22T20:14:26.088Z,101159.95
2019-05-22T20:16:55.223Z,101155.96
2019-05-22T20:19:24.589Z,101157.30
2019-05-22T20:21:53.961Z,101154.69
2019-05-22T20:24:23.022Z,101156.02
2019-05-22T20:26:52.387Z,101152.03
2019-05-22T20:29:22.049Z,101152.50
2019-05-22T20:31:51.421Z,101152.95
2019-05-22T20:34:20.605Z,101157.87
2019-05-22T20:36:49.783Z,101161.86
2019-05-22T20:39:20.023Z,101164.53
2019-05-22T20:41:49.148Z,101165.89
2019-05-22T20:44:19.622Z,101173.43
2019-05-22T20:46:50.949Z,101167.23
2019-05-22T20:49:20.041Z,101166.80
2019-05-22T20:51:49.114Z,101168.14
2019-05-22T20:54:18.505Z,101166.38
2019-05-22T20:56:50.598Z,101162.84
2019-05-22T20:59:21.341Z,101169.03
2019-05-22T21:01:50.402Z,101168.61
2019-05-22T21:04:20.453Z,101169.45
2019-05-22T21:06:59.890Z,101179.22
2019-05-22T21:09:28.155Z,101177.43
2019-05-22T21:11:58.715Z,101175.67
2019-05-22T21:14:28.687Z,101182.77
2019-05-22T21:16:57.763Z,101177.45
2019-05-22T21:19:29.669Z,101180.56
2019-05-22T21:21:59.631Z,101182.78
2019-05-22T21:24:28.820Z,101185.43
2019-05-22T21:26:57.896Z,101182.76
2019-05-22T21:29:27.549Z,101188.07
2019-05-22T21:31:56.617Z,101188.09
2019-05-22T21:34:26.064Z,101193.85
2019-05-22T21:36:55.239Z,101191.61
2019-05-22T21:39:24.416Z,101192.05
2019-05-22T21:41:53.885Z,101192.50
2019-05-22T21:44:23.279Z,101200.48
2019-05-22T21:46:52.729Z,101196.94
2019-05-22T21:49:23.479Z,101202.25
2019-05-22T21:51:52.552Z,101198.70
2019-05-22T21:54:21.734Z,101193.37
2019-05-22T21:56:51.179Z,101196.90
2019-05-22T21:59:20.283Z,101193.80
2019-05-22T22:01:53.885Z,101205.30
2019-05-22T22:04:31.385Z,101200.42
2019-05-22T22:07:01.818Z,101204.85
2019-05-22T22:09:32.561Z,101201.30
2019-05-22T22:12:02.298Z,101205.28
2019-05-22T22:14:32.358Z,101204.38
2019-05-22T22:17:02.406Z,101208.81
2019-05-22T22:19:32.772Z,101213.66
2019-05-22T22:22:02.712Z,101214.09
2019-05-22T22:24:32.392Z,101212.33
2019-05-22T22:27:01.655Z,101212.76
2019-05-22T22:29:31.898Z,101221.59
2019-05-22T22:32:01.172Z,101221.14
2019-05-22T22:34:47.462Z,101215.81
2019-05-22T22:37:17.538Z,101223.34
2019-05-22T22:39:51.995Z,101227.75
2019-05-22T22:42:25.099Z,101219.30
2019-05-22T22:44:55.726Z,101223.25
2019-05-22T22:47:37.023Z,101231.22
2019-05-22T22:50:08.118Z,101230.31
2019-05-22T22:52:39.058Z,101229.40
2019-05-22T22:55:10.983Z,101232.90
2019-05-22T22:57:41.058Z,101224.91
2019-05-22T23:00:13.067Z,101222.22
2019-05-22T23:02:43.837Z,101224.38
2019-05-22T23:05:13.051Z,101223.43
2019-05-22T23:07:43.409Z,101225.17
2019-05-22T23:10:14.652Z,101222.94
2019-05-22T23:12:43.707Z,101225.14
2019-05-22T23:15:18.305Z,101223.77
2019-05-22T23:17:46.637Z,101225.52
2019-05-22T23:20:14.125Z,101232.58
2019-05-22T23:22:41.593Z,101232.55
2019-05-22T23:25:10.800Z,101232.09
2019-05-22T23:27:40.502Z,101231.17
2019-05-22T23:30:10.854Z,101239.15
2019-05-22T23:32:42.480Z,101237.34
2019-05-22T23:35:13.032Z,101235.12
2019-05-22T23:37:43.213Z,101238.20
2019-05-22T23:40:14.326Z,101237.74
2019-05-22T23:42:44.293Z,101244.80
2019-05-22T23:45:16.875Z,101243.47
2019-05-22T23:48:17.416Z,101243.43
2019-05-22T23:50:48.361Z,101244.76
2019-05-22T23:53:18.520Z,101247.36
2019-05-22T23:55:48.788Z,101243.83
2019-05-22T23:58:20.137Z,101239.83
